Time;durP1;ratioP1;P1;durP2;ratioP2;P2;SDS_P1;SDS_P2;PMS_P1;PMS_P2;Temp;Humidity;BMP_temperature;BMP_pressure;BME280_temperature;BME280_humidity;BME280_pressure;Samples;Min_cycle;Max_cycle;Signal;HPM_P1;HPM_P2
2022/06/16 00:00:35;;;;;;;6.82;2.75;;;;;;;;;;4994633;28;20213;-71
2022/06/16 00:03:01;;;;;;;5.63;3.33;;;;;;;;;;4994234;28;20178;-71
2022/06/16 00:05:30;;;;;;;7.25;2.92;;;;;;;;;;5012275;28;20276;-71
2022/06/16 00:07:55;;;;;;;7.53;3.00;;;;;;;;;;4995401;28;20206;-71
2022/06/16 00:10:22;;;;;;;8.20;3.00;;;;;;;;;;4997280;28;20727;-71
2022/06/16 00:12:48;;;;;;;5.82;3.28;;;;;;;;;;4996227;28;20190;-70
2022/06/16 00:15:19;;;;;;;7.63;3.03;;;;;;;;;;4997480;28;20824;-70
2022/06/16 00:17:44;;;;;;;4.13;3.08;;;;;;;;;;4993760;28;20186;-71
2022/06/16 00:20:11;;;;;;;7.13;2.88;;;;;;;;;;4997875;28;20198;-71
2022/06/16 00:22:37;;;;;;;6.65;2.97;;;;;;;;;;4996293;28;20654;-71
2022/06/16 00:25:04;;;;;;;6.07;3.13;;;;;;;;;;4997753;28;20189;-71
2022/06/16 00:27:30;;;;;;;5.95;2.78;;;;;;;;;;4998483;28;20237;-71
2022/06/16 00:29:55;;;;;;;6.93;2.97;;;;;;;;;;4995028;28;20187;-71
2022/06/16 00:32:21;;;;;;;5.32;3.10;;;;;;;;;;4997380;28;20225;-71
2022/06/16 00:34:46;;;;;;;5.60;2.90;;;;;;;;;;4995093;28;20171;-71
2022/06/16 00:37:11;;;;;;;7.57;3.25;;;;;;;;;;4997122;28;20190;-71
2022/06/16 00:39:37;;;;;;;5.30;2.47;;;;;;;;;;4997151;28;20190;-71
2022/06/16 00:42:10;;;;;;;5.63;2.80;;;;;;;;;;4996037;28;20191;-71
2022/06/16 00:44:42;;;;;;;4.97;3.20;;;;;;;;;;5012108;28;20726;-71
2022/06/16 00:47:07;;;;;;;4.13;2.60;;;;;;;;;;4995053;28;20229;-71
2022/06/16 00:49:35;;;;;;;5.68;2.90;;;;;;;;;;4998644;28;20221;-71
2022/06/16 00:52:06;;;;;;;6.28;3.17;;;;;;;;;;5002415;28;20178;-70
2022/06/16 00:54:36;;;;;;;5.90;2.63;;;;;;;;;;5001255;28;20198;-71
2022/06/16 00:57:06;;;;;;;4.22;2.33;;;;;;;;;;4998807;28;20179;-71
2022/06/16 00:59:32;;;;;;;4.45;2.75;;;;;;;;;;4999700;28;20681;-71
2022/06/16 01:01:58;;;;;;;5.13;2.40;;;;;;;;;;5000805;28;20187;-71
2022/06/16 01:04:57;;;;;;;8.45;3.17;;;;;;;;;;5001491;28;20194;-71
2022/06/16 01:07:16;;;;;;;3.95;2.72;;;;;;;;;;4998892;28;20229;-71
2022/06/16 01:09:43;;;;;;;6.95;2.97;;;;;;;;;;5000044;28;20197;-71
2022/06/16 01:15:30;;;;;;;3.58;2.33;;;;;;;;;;5001285;28;20442;-69
2022/06/16 01:18:04;;;;;;;5.40;2.72;;;;;;;;;;5001309;28;20793;-70
2022/06/16 01:20:57;;;;;;;5.18;3.05;;;;;;;;;;5000488;28;20197;-70
2022/06/16 01:23:47;;;;;;;7.25;3.25;;;;;;;;;;5002473;28;20197;-71
2022/06/16 01:26:28;;;;;;;6.30;3.15;;;;;;;;;;5001549;28;20243;-71
2022/06/16 01:29:28;;;;;;;10.18;3.00;;;;;;;;;;4998750;28;20187;-71
2022/06/16 01:32:04;;;;;;;7.95;3.30;;;;;;;;;;5001345;28;20202;-71
2022/06/16 01:34:41;;;;;;;7.15;3.50;;;;;;;;;;4999796;28;20567;-71
2022/06/16 01:37:23;;;;;;;4.30;3.08;;;;;;;;;;5001459;28;20191;-71
2022/06/16 01:39:54;;;;;;;5.13;3.08;;;;;;;;;;5000120;28;20250;-71
2022/06/16 01:42:27;;;;;;;5.93;3.35;;;;;;;;;;5000053;28;20257;-71
2022/06/16 01:45:19;;;;;;;5.18;3.45;;;;;;;;;;4999625;28;20211;-71
2022/06/16 01:47:50;;;;;;;6.10;3.05;;;;;;;;;;4998653;28;20912;-70
2022/06/16 01:50:23;;;;;;;6.47;3.70;;;;;;;;;;5002457;28;20179;-71
2022/06/16 01:53:05;;;;;;;7.22;3.65;;;;;;;;;;5001141;28;20722;-71
2022/06/16 01:55:35;;;;;;;4.50;2.97;;;;;;;;;;5000799;28;20171;-71
2022/06/16 01:58:02;;;;;;;5.55;3.42;;;;;;;;;;5000245;28;20252;-71
2022/06/16 02:00:28;;;;;;;6.45;3.65;;;;;;;;;;5001292;28;20217;-71
2022/06/16 02:03:13;;;;;;;7.70;3.80;;;;;;;;;;5001366;28;20206;-71
2022/06/16 02:05:50;;;;;;;7.28;4.00;;;;;;;;;;4999976;28;20679;-70
2022/06/16 02:08:19;;;;;;;8.13;4.00;;;;;;;;;;4998462;28;20190;-71
2022/06/16 02:10:49;;;;;;;7.35;3.72;;;;;;;;;;5001286;28;20525;-71
2022/06/16 02:13:19;;;;;;;8.10;4.07;;;;;;;;;;5001470;28;20183;-71
2022/06/16 02:15:57;;;;;;;6.95;3.63;;;;;;;;;;5006645;28;20866;-71
2022/06/16 02:18:36;;;;;;;5.85;3.40;;;;;;;;;;5000603;28;20211;-71
2022/06/16 02:21:33;;;;;;;5.45;4.38;;;;;;;;;;5000567;28;20194;-71
2022/06/16 02:24:00;;;;;;;7.18;4.22;;;;;;;;;;4998833;28;20187;-71
2022/06/16 02:26:26;;;;;;;5.55;3.70;;;;;;;;;;4998875;28;20228;-71
2022/06/16 02:28:54;;;;;;;7.13;3.78;;;;;;;;;;4995360;28;20187;-71
2022/06/16 02:31:52;;;;;;;9.68;5.20;;;;;;;;;;4999314;28;20201;-71
2022/06/16 02:34:34;;;;;;;7.13;4.10;;;;;;;;;;4998977;28;20273;-71
2022/06/16 02:37:18;;;;;;;8.50;4.57;;;;;;;;;;4998581;28;20182;-71
2022/06/16 02:40:05;;;;;;;9.18;4.93;;;;;;;;;;5000630;28;20193;-71
2022/06/16 02:43:04;;;;;;;5.95;4.50;;;;;;;;;;4998867;28;20622;-71
2022/06/16 02:46:00;;;;;;;6.68;4.63;;;;;;;;;;4998072;28;20202;-71
2022/06/16 02:48:37;;;;;;;8.18;5.40;;;;;;;;;;5013810;28;20606;-71
2022/06/16 02:51:21;;;;;;;10.85;5.30;;;;;;;;;;4998506;28;21262;-70
2022/06/16 02:54:20;;;;;;;6.50;4.45;;;;;;;;;;4998746;28;20245;-71
2022/06/16 02:57:10;;;;;;;12.13;5.25;;;;;;;;;;4997395;28;20655;-70
2022/06/16 02:59:47;;;;;;;7.63;5.10;;;;;;;;;;4997914;28;20233;-71
2022/06/16 03:02:20;;;;;;;10.93;5.80;;;;;;;;;;4998540;28;20567;-71
2022/06/16 03:04:52;;;;;;;8.82;5.40;;;;;;;;;;4998555;28;20186;-71
2022/06/16 03:07:18;;;;;;;7.90;4.97;;;;;;;;;;4999931;28;20697;-70
2022/06/16 03:09:44;;;;;;;7.78;5.25;;;;;;;;;;4997069;28;20187;-71
2022/06/16 03:12:11;;;;;;;9.40;5.75;;;;;;;;;;4997858;28;20702;-71
2022/06/16 03:14:36;;;;;;;7.55;5.15;;;;;;;;;;4998690;28;20274;-71
2022/06/16 03:17:03;;;;;;;10.75;5.18;;;;;;;;;;4997962;28;20309;-70
2022/06/16 03:19:29;;;;;;;10.18;5.53;;;;;;;;;;4999756;28;20698;-70
2022/06/16 03:21:57;;;;;;;8.48;5.55;;;;;;;;;;5003228;28;20305;-70
2022/06/16 03:24:23;;;;;;;16.92;6.90;;;;;;;;;;5007773;28;20542;-71
2022/06/16 03:26:48;;;;;;;10.27;5.68;;;;;;;;;;4997267;28;20236;-70
2022/06/16 03:29:14;;;;;;;10.52;6.20;;;;;;;;;;4998280;28;20650;-71
2022/06/16 03:31:40;;;;;;;9.30;5.78;;;;;;;;;;4998400;28;20246;-71
2022/06/16 03:34:05;;;;;;;11.70;5.70;;;;;;;;;;4996150;28;20213;-71
2022/06/16 03:36:32;;;;;;;11.73;6.05;;;;;;;;;;4997851;28;20189;-71
2022/06/16 03:38:57;;;;;;;8.25;6.20;;;;;;;;;;4997979;28;20646;-70
2022/06/16 03:41:22;;;;;;;9.15;5.75;;;;;;;;;;4998106;28;20194;-71
2022/06/16 03:43:48;;;;;;;11.45;6.30;;;;;;;;;;5013118;28;21022;-71
2022/06/16 03:46:15;;;;;;;13.45;6.68;;;;;;;;;;4996440;28;20195;-71
2022/06/16 03:48:41;;;;;;;8.80;5.80;;;;;;;;;;4999807;28;20191;-70
2022/06/16 03:51:08;;;;;;;13.75;6.68;;;;;;;;;;4997988;28;20605;-70
2022/06/16 03:53:34;;;;;;;10.43;5.80;;;;;;;;;;4997458;28;20182;-71
2022/06/16 03:55:59;;;;;;;8.52;5.78;;;;;;;;;;4997485;28;20261;-72
2022/06/16 03:58:25;;;;;;;11.07;6.80;;;;;;;;;;4997531;28;20182;-70
2022/06/16 04:00:51;;;;;;;8.55;6.07;;;;;;;;;;4997837;28;20194;-71
2022/06/16 04:06:02;;;;;;;11.05;6.97;;;;;;;;;;4997661;28;20280;-70
2022/06/16 04:08:28;;;;;;;12.27;6.68;;;;;;;;;;5001245;28;20194;-71
2022/06/16 04:10:53;;;;;;;10.50;6.43;;;;;;;;;;4997896;28;20389;-71
2022/06/16 04:13:20;;;;;;;12.45;6.35;;;;;;;;;;4999524;28;20198;-72
2022/06/16 04:15:45;;;;;;;10.43;7.10;;;;;;;;;;4997746;28;20189;-71
2022/06/16 04:18:11;;;;;;;12.93;7.03;;;;;;;;;;4999455;28;20388;-71
2022/06/16 04:20:37;;;;;;;12.77;7.53;;;;;;;;;;4997935;28;20179;-72
2022/06/16 04:23:02;;;;;;;13.35;7.15;;;;;;;;;;4994882;28;20562;-72
2022/06/16 04:25:30;;;;;;;12.80;7.25;;;;;;;;;;4998581;28;20300;-72
2022/06/16 04:28:01;;;;;;;12.57;7.45;;;;;;;;;;4996207;28;20712;-71
2022/06/16 04:30:27;;;;;;;12.93;6.57;;;;;;;;;;4997252;28;20195;-70
2022/06/16 04:32:52;;;;;;;10.52;6.45;;;;;;;;;;4997514;28;20210;-70
2022/06/16 04:35:18;;;;;;;13.73;6.57;;;;;;;;;;4996578;28;20189;-72
2022/06/16 04:37:43;;;;;;;13.60;5.97;;;;;;;;;;5016183;28;20187;-70
2022/06/16 04:40:10;;;;;;;10.68;6.07;;;;;;;;;;4997241;28;20218;-70
2022/06/16 04:42:36;;;;;;;8.20;5.80;;;;;;;;;;4995037;28;20649;-70
2022/06/16 04:45:01;;;;;;;10.20;6.20;;;;;;;;;;4996903;28;20182;-70
2022/06/16 04:47:26;;;;;;;10.90;6.40;;;;;;;;;;4998507;28;20194;-70
2022/06/16 04:49:52;;;;;;;12.73;5.70;;;;;;;;;;4997533;28;20656;-70
2022/06/16 04:52:18;;;;;;;8.25;5.75;;;;;;;;;;4998757;28;20573;-70
2022/06/16 04:54:45;;;;;;;9.60;5.88;;;;;;;;;;4995347;28;21850;-71
2022/06/16 04:57:10;;;;;;;8.10;5.90;;;;;;;;;;4998832;28;20174;-70
2022/06/16 04:59:37;;;;;;;9.40;5.60;;;;;;;;;;4992110;28;20602;-71
2022/06/16 05:02:02;;;;;;;8.23;5.38;;;;;;;;;;4996409;28;20280;-70
2022/06/16 05:04:28;;;;;;;10.75;5.72;;;;;;;;;;4999090;28;20265;-71
2022/06/16 05:06:55;;;;;;;10.48;5.25;;;;;;;;;;4991258;28;20207;-71
2022/06/16 05:09:21;;;;;;;11.45;5.47;;;;;;;;;;4996825;28;20266;-69
2022/06/16 05:11:46;;;;;;;9.20;5.53;;;;;;;;;;4994167;28;20341;-71
2022/06/16 05:14:12;;;;;;;9.95;6.13;;;;;;;;;;4995308;28;20282;-70
2022/06/16 05:16:37;;;;;;;8.98;5.65;;;;;;;;;;4994288;28;20274;-70
2022/06/16 05:19:02;;;;;;;10.45;5.75;;;;;;;;;;4995326;28;20201;-71
2022/06/16 05:21:28;;;;;;;9.70;5.47;;;;;;;;;;4997453;28;20191;-71
2022/06/16 05:23:53;;;;;;;11.20;6.82;;;;;;;;;;4994989;28;20217;-70
2022/06/16 05:26:19;;;;;;;8.52;6.03;;;;;;;;;;4993634;28;20219;-71
2022/06/16 05:28:44;;;;;;;7.22;5.35;;;;;;;;;;4991809;28;20643;-70
2022/06/16 05:31:10;;;;;;;9.30;5.57;;;;;;;;;;4993796;28;20729;-70
2022/06/16 05:33:35;;;;;;;10.60;5.10;;;;;;;;;;4996316;28;20187;-70
2022/06/16 05:36:07;;;;;;;10.23;5.15;;;;;;;;;;4993993;28;20217;-69
2022/06/16 05:38:34;;;;;;;10.77;5.45;;;;;;;;;;4997866;28;20183;-70
2022/06/16 05:41:10;;;;;;;12.20;5.13;;;;;;;;;;5000394;28;20688;-71
2022/06/16 05:43:36;;;;;;;9.77;5.68;;;;;;;;;;5001080;28;20308;-71
2022/06/16 05:46:02;;;;;;;7.85;4.70;;;;;;;;;;4998415;28;20210;-70
2022/06/16 05:48:28;;;;;;;7.03;4.65;;;;;;;;;;4998947;28;20210;-71
2022/06/16 05:50:54;;;;;;;6.93;4.40;;;;;;;;;;4995814;28;20229;-71
2022/06/16 05:53:19;;;;;;;7.63;4.80;;;;;;;;;;4999518;28;20226;-71
2022/06/16 05:55:45;;;;;;;10.30;5.07;;;;;;;;;;5003034;28;20258;-70
2022/06/16 05:58:11;;;;;;;11.40;5.40;;;;;;;;;;5006000;28;20183;-70
2022/06/16 06:00:37;;;;;;;10.30;5.18;;;;;;;;;;5006837;28;20175;-71
2022/06/16 06:03:03;;;;;;;13.85;5.88;;;;;;;;;;5003958;28;20198;-71
2022/06/16 06:05:29;;;;;;;10.15;5.78;;;;;;;;;;5002713;28;20253;-71
2022/06/16 06:16:26;;;;;;;9.25;5.28;;;;;;;;;;5002227;28;20286;-70
2022/06/16 06:18:56;;;;;;;8.38;4.63;;;;;;;;;;5001179;28;20646;-71
2022/06/16 06:24:07;;;;;;;8.02;4.65;;;;;;;;;;4997267;28;20260;-70
2022/06/16 06:26:33;;;;;;;10.48;4.88;;;;;;;;;;4994555;28;20223;-70
2022/06/16 06:28:59;;;;;;;8.68;4.22;;;;;;;;;;4996959;28;20215;-71
2022/06/16 06:31:25;;;;;;;7.63;4.25;;;;;;;;;;4995783;28;20617;-70
2022/06/16 06:33:50;;;;;;;7.03;3.90;;;;;;;;;;4997920;28;20195;-70
2022/06/16 06:36:16;;;;;;;6.22;3.53;;;;;;;;;;5000443;28;20193;-67
2022/06/16 06:38:41;;;;;;;6.03;3.42;;;;;;;;;;4999158;28;20694;-71
2022/06/16 06:41:07;;;;;;;7.85;3.42;;;;;;;;;;4991180;28;20189;-72
2022/06/16 06:43:32;;;;;;;7.35;2.90;;;;;;;;;;4997831;28;20717;-70
2022/06/16 06:45:57;;;;;;;5.88;2.85;;;;;;;;;;4998247;28;20225;-70
2022/06/16 06:48:23;;;;;;;4.60;2.30;;;;;;;;;;4998545;28;20281;-70
2022/06/16 06:50:49;;;;;;;4.80;2.38;;;;;;;;;;4996037;28;20282;-69
2022/06/16 06:53:14;;;;;;;6.72;2.85;;;;;;;;;;4997107;28;20206;-69
2022/06/16 06:55:43;;;;;;;5.90;3.00;;;;;;;;;;4997400;28;20192;-70
2022/06/16 06:58:16;;;;;;;4.72;2.42;;;;;;;;;;4998156;28;20646;-70
2022/06/16 07:00:41;;;;;;;4.97;1.58;;;;;;;;;;4998140;28;20222;-69
2022/06/16 07:03:07;;;;;;;3.13;1.58;;;;;;;;;;5002526;28;20238;-70
2022/06/16 07:05:32;;;;;;;4.60;1.70;;;;;;;;;;5009025;28;20217;-70
2022/06/16 07:07:58;;;;;;;5.18;1.50;;;;;;;;;;5006028;28;20748;-70
2022/06/16 07:10:24;;;;;;;2.63;1.38;;;;;;;;;;4998124;28;20187;-70
2022/06/16 07:12:49;;;;;;;4.03;1.70;;;;;;;;;;4998967;28;20229;-70
2022/06/16 07:15:15;;;;;;;1.85;1.30;;;;;;;;;;4998966;28;20187;-70
2022/06/16 07:17:40;;;;;;;2.88;1.40;;;;;;;;;;4994888;28;20270;-71
2022/06/16 07:20:06;;;;;;;3.10;0.90;;;;;;;;;;4997030;28;20195;-70
2022/06/16 07:22:32;;;;;;;2.58;1.02;;;;;;;;;;4998654;28;20191;-68
2022/06/16 07:24:57;;;;;;;2.20;1.23;;;;;;;;;;4998948;28;20191;-71
2022/06/16 07:27:23;;;;;;;2.58;0.80;;;;;;;;;;5000442;28;20317;-68
2022/06/16 07:29:49;;;;;;;2.58;0.85;;;;;;;;;;4996570;28;20706;-70
2022/06/16 07:32:16;;;;;;;1.95;0.80;;;;;;;;;;4999071;28;20621;-70
2022/06/16 07:34:42;;;;;;;3.10;0.70;;;;;;;;;;4998839;28;20503;-70
2022/06/16 07:37:07;;;;;;;2.72;0.75;;;;;;;;;;4997945;28;20240;-70
2022/06/16 07:39:33;;;;;;;1.83;0.80;;;;;;;;;;5000987;28;20561;-70
2022/06/16 07:41:58;;;;;;;3.30;0.80;;;;;;;;;;5004411;28;20197;-70
2022/06/16 07:44:23;;;;;;;2.05;0.77;;;;;;;;;;4997604;28;20688;-68
2022/06/16 07:46:49;;;;;;;1.38;0.60;;;;;;;;;;4997491;28;20214;-69
2022/06/16 07:49:22;;;;;;;3.35;0.68;;;;;;;;;;4998086;28;20211;-70
2022/06/16 07:51:49;;;;;;;2.50;0.75;;;;;;;;;;4997884;28;20605;-69
2022/06/16 07:54:15;;;;;;;1.75;0.85;;;;;;;;;;4995698;28;20214;-70
2022/06/16 07:56:41;;;;;;;1.20;0.50;;;;;;;;;;4979577;28;20446;-70
2022/06/16 07:59:06;;;;;;;3.65;0.80;;;;;;;;;;4998220;28;20214;-70
2022/06/16 08:01:31;;;;;;;3.15;0.80;;;;;;;;;;4996990;28;20266;-70
2022/06/16 08:03:58;;;;;;;1.17;0.95;;;;;;;;;;4995462;28;20631;-70
2022/06/16 08:06:26;;;;;;;3.15;1.00;;;;;;;;;;4997031;28;20194;-70
2022/06/16 08:08:53;;;;;;;1.15;0.80;;;;;;;;;;4996371;28;20659;-70
2022/06/16 08:14:04;;;;;;;3.00;0.60;;;;;;;;;;4997724;28;20189;-70
2022/06/16 08:16:30;;;;;;;4.72;0.82;;;;;;;;;;4998471;28;20202;-70
2022/06/16 08:18:56;;;;;;;0.90;0.60;;;;;;;;;;4996459;28;20265;-70
2022/06/16 08:21:22;;;;;;;2.38;0.80;;;;;;;;;;4998704;28;20320;-66
2022/06/16 08:23:47;;;;;;;0.93;0.80;;;;;;;;;;4998553;28;20187;-70
2022/06/16 08:26:12;;;;;;;4.28;1.00;;;;;;;;;;4998911;28;20710;-71
2022/06/16 08:28:38;;;;;;;2.63;0.60;;;;;;;;;;4997879;28;20194;-69
2022/06/16 08:31:05;;;;;;;3.60;0.70;;;;;;;;;;4997483;28;20522;-72
2022/06/16 08:33:31;;;;;;;2.60;0.82;;;;;;;;;;4995520;28;20268;-70
2022/06/16 08:35:57;;;;;;;4.30;2.78;;;;;;;;;;4994504;28;20190;-70
2022/06/16 08:38:22;;;;;;;2.42;0.90;;;;;;;;;;4995383;28;20194;-71
2022/06/16 08:41:11;;;;;;;4.88;0.95;;;;;;;;;;4995829;28;20191;-71
2022/06/16 08:43:52;;;;;;;3.92;1.08;;;;;;;;;;4995861;28;20679;-69
2022/06/16 08:46:19;;;;;;;2.83;0.90;;;;;;;;;;4999322;28;20207;-68
2022/06/16 08:48:58;;;;;;;2.10;0.93;;;;;;;;;;4997925;28;20188;-69
2022/06/16 08:51:42;;;;;;;3.33;1.25;;;;;;;;;;4997590;28;20177;-71
2022/06/16 08:54:27;;;;;;;1.65;0.90;;;;;;;;;;4997748;28;20244;-71
2022/06/16 08:56:57;;;;;;;2.67;1.00;;;;;;;;;;4995481;28;20264;-71
2022/06/16 08:59:41;;;;;;;2.42;0.88;;;;;;;;;;4997072;28;20191;-71
2022/06/16 09:02:30;;;;;;;2.53;1.10;;;;;;;;;;5011912;28;20612;-71
2022/06/16 09:05:09;;;;;;;2.92;1.27;;;;;;;;;;4995916;28;20197;-71
2022/06/16 09:07:45;;;;;;;2.40;1.00;;;;;;;;;;4995549;28;20258;-71
2022/06/16 09:10:33;;;;;;;3.65;1.25;;;;;;;;;;5013644;28;20244;-71
2022/06/16 09:13:23;;;;;;;2.45;0.90;;;;;;;;;;5001949;28;20187;-71
2022/06/16 09:16:13;;;;;;;6.22;1.30;;;;;;;;;;5000422;28;20175;-69
2022/06/16 09:18:57;;;;;;;3.67;1.25;;;;;;;;;;5000590;28;20276;-71
2022/06/16 09:21:45;;;;;;;3.83;1.33;;;;;;;;;;5001009;28;20183;-71
2022/06/16 09:24:49;;;;;;;3.47;1.70;;;;;;;;;;5000334;28;20210;-66
2022/06/16 09:27:25;;;;;;;3.30;1.50;;;;;;;;;;4992252;28;20684;-69
2022/06/16 09:29:57;;;;;;;7.95;1.85;;;;;;;;;;5000442;28;20249;-71
2022/06/16 09:32:44;;;;;;;2.72;1.58;;;;;;;;;;4999001;28;20194;-70
2022/06/16 09:35:18;;;;;;;3.50;1.70;;;;;;;;;;5000143;28;20707;-70
2022/06/16 09:37:51;;;;;;;3.42;1.50;;;;;;;;;;5013008;28;20187;-70
2022/06/16 09:40:23;;;;;;;3.40;1.60;;;;;;;;;;4998940;28;20708;-69
2022/06/16 09:42:59;;;;;;;4.72;1.40;;;;;;;;;;4997517;28;20745;-70
2022/06/16 09:45:33;;;;;;;2.13;1.70;;;;;;;;;;5014631;28;20198;-70
2022/06/16 09:48:06;;;;;;;3.13;1.70;;;;;;;;;;4998107;28;20252;-71
2022/06/16 09:50:40;;;;;;;5.82;1.63;;;;;;;;;;4997988;28;20198;-71
2022/06/16 09:53:16;;;;;;;4.50;1.60;;;;;;;;;;4998719;28;20226;-71
2022/06/16 09:55:51;;;;;;;6.50;1.85;;;;;;;;;;4997745;28;20182;-68
2022/06/16 09:58:40;;;;;;;1.33;1.13;;;;;;;;;;4996816;28;20182;-70
2022/06/16 10:01:08;;;;;;;2.60;1.60;;;;;;;;;;5000503;28;20878;-68
2022/06/16 10:03:43;;;;;;;4.70;1.45;;;;;;;;;;5001637;28;20364;-71
2022/06/16 10:06:26;;;;;;;5.18;2.20;;;;;;;;;;5001295;28;20512;-68
2022/06/16 10:08:57;;;;;;;4.55;1.88;;;;;;;;;;5014558;28;20292;-70
2022/06/16 10:11:32;;;;;;;5.03;1.80;;;;;;;;;;5000373;28;20197;-71
2022/06/16 10:14:05;;;;;;;4.15;2.05;;;;;;;;;;5016115;28;20190;-70
2022/06/16 10:16:49;;;;;;;6.30;1.85;;;;;;;;;;4999473;28;20622;-71
2022/06/16 10:19:15;;;;;;;3.75;2.10;;;;;;;;;;5000964;28;20658;-70
2022/06/16 10:21:40;;;;;;;5.20;1.85;;;;;;;;;;5000749;28;20265;-71
2022/06/16 10:24:07;;;;;;;4.35;1.95;;;;;;;;;;4995477;28;20190;-73
2022/06/16 10:26:34;;;;;;;3.53;1.77;;;;;;;;;;4999073;28;20457;-71
2022/06/16 10:29:22;;;;;;;4.85;2.15;;;;;;;;;;4997109;28;20243;-69
2022/06/16 10:31:48;;;;;;;5.18;2.30;;;;;;;;;;4998523;28;20217;-71
2022/06/16 10:34:29;;;;;;;3.35;2.10;;;;;;;;;;4997786;28;20187;-70
2022/06/16 10:36:57;;;;;;;9.52;2.28;;;;;;;;;;4998846;28;20187;-72
2022/06/16 10:39:35;;;;;;;6.85;2.17;;;;;;;;;;4996601;28;20183;-70
2022/06/16 10:42:26;;;;;;;4.50;2.25;;;;;;;;;;4998897;28;20498;-70
2022/06/16 10:45:03;;;;;;;4.80;1.92;;;;;;;;;;4999077;28;20287;-71
2022/06/16 10:47:33;;;;;;;3.28;1.98;;;;;;;;;;5000269;28;21780;-71
2022/06/16 10:50:00;;;;;;;4.95;1.98;;;;;;;;;;5000583;28;20507;-71
2022/06/16 10:52:31;;;;;;;3.55;1.83;;;;;;;;;;4999569;28;21491;-71
2022/06/16 10:55:01;;;;;;;6.25;1.90;;;;;;;;;;4998249;28;20183;-71
2022/06/16 10:57:29;;;;;;;5.72;2.42;;;;;;;;;;4999265;28;20178;-71
2022/06/16 11:00:30;;;;;;;2.50;1.83;;;;;;;;;;4997298;28;20193;-70
2022/06/16 11:03:01;;;;;;;3.30;1.70;;;;;;;;;;4977049;28;20606;-70
2022/06/16 11:05:30;;;;;;;7.50;2.00;;;;;;;;;;4999452;28;20206;-69
2022/06/16 11:08:08;;;;;;;6.30;2.08;;;;;;;;;;4998708;28;20220;-65
2022/06/16 11:10:40;;;;;;;4.70;2.05;;;;;;;;;;4996026;28;20205;-66
2022/06/16 11:13:06;;;;;;;5.93;2.20;;;;;;;;;;4997804;28;20194;-70
2022/06/16 11:15:34;;;;;;;5.40;2.03;;;;;;;;;;4999264;28;20669;-70
2022/06/16 11:18:04;;;;;;;4.18;2.17;;;;;;;;;;4997582;28;20198;-64
2022/06/16 11:20:30;;;;;;;3.90;2.00;;;;;;;;;;4999227;28;20286;-68
2022/06/16 11:22:57;;;;;;;3.33;1.63;;;;;;;;;;5000082;28;20718;-71
2022/06/16 11:25:31;;;;;;;4.55;2.03;;;;;;;;;;4998863;28;20261;-71
2022/06/16 11:28:06;;;;;;;3.20;2.00;;;;;;;;;;5000111;28;20264;-70
2022/06/16 11:30:43;;;;;;;5.70;2.20;;;;;;;;;;5000195;28;20194;-70
2022/06/16 11:36:25;;;;;;;3.55;2.15;;;;;;;;;;4999290;28;21022;-71
2022/06/16 11:39:00;;;;;;;2.90;2.20;;;;;;;;;;4995664;28;20756;-66
2022/06/16 11:41:27;;;;;;;4.32;1.77;;;;;;;;;;5001716;28;20718;-69
2022/06/16 11:44:15;;;;;;;4.18;2.58;;;;;;;;;;4997468;28;20269;-71
2022/06/16 11:47:02;;;;;;;3.70;2.03;;;;;;;;;;4997060;28;20206;-70
2022/06/16 11:50:05;;;;;;;8.50;2.30;;;;;;;;;;4998491;28;20183;-71
2022/06/16 11:53:00;;;;;;;4.78;2.22;;;;;;;;;;4998283;28;20194;-71
2022/06/16 11:55:35;;;;;;;4.00;2.05;;;;;;;;;;4995110;28;20245;-70
2022/06/16 11:58:22;;;;;;;3.42;1.98;;;;;;;;;;4998302;28;20306;-70
2022/06/16 12:01:02;;;;;;;5.55;2.10;;;;;;;;;;4998877;28;20214;-65
2022/06/16 12:03:42;;;;;;;4.93;2.30;;;;;;;;;;4998045;28;20218;-70
2022/06/16 12:06:35;;;;;;;5.10;2.08;;;;;;;;;;5000211;28;20210;-71
2022/06/16 12:09:17;;;;;;;4.25;2.30;;;;;;;;;;5002791;28;20264;-70
2022/06/16 12:11:55;;;;;;;2.15;1.90;;;;;;;;;;5000042;28;20182;-70
2022/06/16 12:14:50;;;;;;;6.00;2.08;;;;;;;;;;4998618;28;20198;-70
2022/06/16 12:17:41;;;;;;;6.03;2.13;;;;;;;;;;4963946;28;20198;-71
2022/06/16 12:20:06;;;;;;;5.63;1.80;;;;;;;;;;4979096;28;20341;-71
2022/06/16 12:22:40;;;;;;;4.28;2.35;;;;;;;;;;4997387;28;20182;-69
2022/06/16 12:25:35;;;;;;;3.42;2.13;;;;;;;;;;5002290;28;20186;-70
2022/06/16 12:28:36;;;;;;;4.60;2.20;;;;;;;;;;4999565;28;20282;-67
2022/06/16 12:31:11;;;;;;;3.13;2.10;;;;;;;;;;4999463;28;20205;-71
2022/06/16 12:34:07;;;;;;;7.63;2.40;;;;;;;;;;4997624;28;20210;-71
2022/06/16 12:36:50;;;;;;;5.88;2.17;;;;;;;;;;5000984;28;20178;-70
2022/06/16 12:39:24;;;;;;;5.75;1.92;;;;;;;;;;5001355;28;20186;-71
2022/06/16 12:41:54;;;;;;;4.03;1.98;;;;;;;;;;5000127;28;20282;-71
2022/06/16 12:44:48;;;;;;;9.23;2.30;;;;;;;;;;4999934;28;20227;-70
2022/06/16 12:47:28;;;;;;;3.22;2.17;;;;;;;;;;5000724;28;20325;-72
2022/06/16 12:50:03;;;;;;;6.03;2.42;;;;;;;;;;4999132;28;20265;-67
2022/06/16 12:52:38;;;;;;;4.50;1.65;;;;;;;;;;5000509;28;20721;-70
2022/06/16 12:55:09;;;;;;;6.07;2.53;;;;;;;;;;5001156;28;20758;-69
2022/06/16 12:57:42;;;;;;;5.45;1.95;;;;;;;;;;5000141;28;20256;-69
2022/06/16 13:00:13;;;;;;;6.55;2.25;;;;;;;;;;4999559;28;20194;-71
2022/06/16 13:02:50;;;;;;;3.53;1.90;;;;;;;;;;4999280;28;20280;-69
2022/06/16 13:05:18;;;;;;;6.05;1.60;;;;;;;;;;5002059;28;20182;-71
2022/06/16 13:07:52;;;;;;;3.80;1.90;;;;;;;;;;5016801;28;20206;-70
2022/06/16 13:10:18;;;;;;;3.97;1.88;;;;;;;;;;4999401;28;20178;-71
2022/06/16 13:12:56;;;;;;;4.43;1.83;;;;;;;;;;5001548;28;20190;-70
2022/06/16 13:15:32;;;;;;;5.07;2.10;;;;;;;;;;4999276;28;20483;-67
2022/06/16 13:18:07;;;;;;;3.38;1.77;;;;;;;;;;5000236;28;20269;-68
2022/06/16 13:20:33;;;;;;;3.65;1.92;;;;;;;;;;5001891;28;20583;-65
2022/06/16 13:23:11;;;;;;;2.63;1.50;;;;;;;;;;4999185;28;20225;-69
2022/06/16 13:25:54;;;;;;;3.63;1.80;;;;;;;;;;4998398;28;20720;-70
2022/06/16 13:28:35;;;;;;;2.72;1.70;;;;;;;;;;4997423;28;20309;-69
2022/06/16 13:31:09;;;;;;;4.97;1.95;;;;;;;;;;4997833;28;20317;-71
2022/06/16 13:33:54;;;;;;;7.03;1.80;;;;;;;;;;4997065;28;20660;-71
2022/06/16 13:36:22;;;;;;;5.93;1.77;;;;;;;;;;4998332;28;20225;-71
2022/06/16 13:38:50;;;;;;;2.55;1.70;;;;;;;;;;5000863;28;20762;-70
2022/06/16 13:41:39;;;;;;;3.95;1.92;;;;;;;;;;5000841;28;20175;-70
2022/06/16 13:44:11;;;;;;;4.88;1.85;;;;;;;;;;4998067;28;20194;-69
2022/06/16 13:47:12;;;;;;;4.05;1.70;;;;;;;;;;5000447;28;20231;-67
2022/06/16 13:49:46;;;;;;;2.85;1.50;;;;;;;;;;5000058;28;20202;-70
2022/06/16 13:52:23;;;;;;;5.95;2.17;;;;;;;;;;4999364;28;20201;-69
2022/06/16 13:54:49;;;;;;;5.30;1.88;;;;;;;;;;4997789;28;20213;-70
2022/06/16 13:57:24;;;;;;;4.47;2.03;;;;;;;;;;4999850;28;20183;-70
2022/06/16 13:59:59;;;;;;;4.60;2.05;;;;;;;;;;4997600;28;20620;-71
2022/06/16 14:02:26;;;;;;;5.55;2.00;;;;;;;;;;4999128;28;20196;-65
2022/06/16 14:05:03;;;;;;;4.20;1.83;;;;;;;;;;5000208;28;20190;-65
2022/06/16 14:07:51;;;;;;;3.25;1.70;;;;;;;;;;4994944;28;20576;-70
2022/06/16 14:10:36;;;;;;;2.35;1.73;;;;;;;;;;4996299;28;20193;-70
2022/06/16 14:13:18;;;;;;;2.13;1.60;;;;;;;;;;4997415;28;20178;-69
2022/06/16 14:15:53;;;;;;;2.10;1.90;;;;;;;;;;5000468;28;20206;-70
2022/06/16 14:18:49;;;;;;;3.08;2.00;;;;;;;;;;4997029;28;20666;-70
2022/06/16 14:21:16;;;;;;;4.30;1.70;;;;;;;;;;5028998;28;20210;-65
2022/06/16 14:23:53;;;;;;;4.88;1.98;;;;;;;;;;4997805;28;20198;-69
2022/06/16 14:26:24;;;;;;;2.83;2.00;;;;;;;;;;4996671;28;20222;-69
2022/06/16 14:28:50;;;;;;;4.22;2.03;;;;;;;;;;5000955;28;20293;-69
2022/06/16 14:31:21;;;;;;;3.60;2.10;;;;;;;;;;5004720;28;20238;-70
2022/06/16 14:33:55;;;;;;;4.95;2.63;;;;;;;;;;4995930;28;20220;-70
2022/06/16 14:36:23;;;;;;;3.47;2.05;;;;;;;;;;4997325;28;20691;-69
2022/06/16 14:39:24;;;;;;;3.72;1.67;;;;;;;;;;4995135;28;20198;-70
2022/06/16 14:41:56;;;;;;;2.80;1.88;;;;;;;;;;4994254;28;20221;-64
2022/06/16 14:44:26;;;;;;;5.40;2.40;;;;;;;;;;4998942;28;20183;-66
2022/06/16 14:47:15;;;;;;;4.57;2.30;;;;;;;;;;5000854;28;20761;-69
2022/06/16 14:49:48;;;;;;;3.58;1.88;;;;;;;;;;5002828;28;20308;-69
2022/06/16 14:52:17;;;;;;;3.03;1.95;;;;;;;;;;4999388;28;20705;-69
2022/06/16 14:55:13;;;;;;;4.68;2.17;;;;;;;;;;4999128;28;20241;-70
2022/06/16 14:57:46;;;;;;;4.05;2.22;;;;;;;;;;4985534;28;20241;-70
2022/06/16 15:00:25;;;;;;;5.93;2.05;;;;;;;;;;5000550;28;20179;-70
2022/06/16 15:02:56;;;;;;;4.45;2.22;;;;;;;;;;5001440;28;20197;-70
2022/06/16 15:05:22;;;;;;;3.65;1.77;;;;;;;;;;5002255;28;20287;-70
2022/06/16 15:07:50;;;;;;;1.77;1.42;;;;;;;;;;4997547;28;20294;-70
2022/06/16 15:10:19;;;;;;;6.82;2.00;;;;;;;;;;4998813;28;20203;-70
2022/06/16 15:12:45;;;;;;;6.72;1.77;;;;;;;;;;5015062;28;20191;-70
2022/06/16 15:15:16;;;;;;;2.55;2.10;;;;;;;;;;4998508;28;20669;-70
2022/06/16 15:20:26;;;;;;;3.83;2.38;;;;;;;;;;4999501;28;20230;-71
2022/06/16 15:22:56;;;;;;;4.45;2.10;;;;;;;;;;4998459;28;20638;-70
2022/06/16 15:25:34;;;;;;;3.85;2.15;;;;;;;;;;4998651;28;20243;-70
2022/06/16 15:28:13;;;;;;;3.03;1.90;;;;;;;;;;4999607;28;20219;-71
2022/06/16 15:30:39;;;;;;;6.57;2.10;;;;;;;;;;4993253;28;20179;-71
2022/06/16 15:36:09;;;;;;;3.97;2.00;;;;;;;;;;4995836;28;20189;-71
2022/06/16 15:38:36;;;;;;;4.75;2.15;;;;;;;;;;4997090;28;20736;-68
2022/06/16 15:41:02;;;;;;;3.88;2.20;;;;;;;;;;4995421;28;20280;-70